createdAt,value
2018-05-16T00:00:38.737Z,84.15
2018-05-16T00:03:07.065Z,84.18
2018-05-16T00:05:35.379Z,84.66
2018-05-16T00:08:03.694Z,82.35
2018-05-16T00:10:32.031Z,83.80
2018-05-16T00:13:00.324Z,84.21
2018-05-16T00:15:28.977Z,84.42
2018-05-16T00:17:57.283Z,83.52
2018-05-16T00:20:25.582Z,83.54
2018-05-16T00:22:53.916Z,82.86
2018-05-16T00:25:22.187Z,82.17
2018-05-16T00:27:50.523Z,84.21
2018-05-16T00:30:18.805Z,82.02
2018-05-16T00:32:47.078Z,82.07
2018-05-16T00:35:16.132Z,82.40
2018-05-16T00:37:44.436Z,80.99
2018-05-16T00:40:12.744Z,80.86
2018-05-16T00:42:41.042Z,81.28
2018-05-16T00:45:09.355Z,81.31
2018-05-16T00:47:37.673Z,82.56
2018-05-16T00:50:06.738Z,83.15
2018-05-16T00:52:35.076Z,81.81
2018-05-16T00:55:03.430Z,80.33
2018-05-16T00:57:32.462Z,79.34
2018-05-16T01:00:00.777Z,79.58
2018-05-16T01:02:29.089Z,82.93
2018-05-16T01:04:57.398Z,79.63
2018-05-16T01:07:25.748Z,78.91
2018-05-16T01:09:54.046Z,80.38
2018-05-16T01:12:22.544Z,80.28
2018-05-16T01:14:50.813Z,80.12
2018-05-16T01:17:19.099Z,80.05
2018-05-16T01:19:47.398Z,80.38
2018-05-16T01:22:15.726Z,81.27
2018-05-16T01:24:44.041Z,82.09
2018-05-16T01:27:12.344Z,83.06
2018-05-16T01:29:41.410Z,83.43
2018-05-16T01:32:09.714Z,84.03
2018-05-16T01:34:38.009Z,84.32
2018-05-16T01:37:07.142Z,84.05
2018-05-16T01:39:35.461Z,84.52
2018-05-16T01:42:03.768Z,85.37
2018-05-16T01:44:32.083Z,87.07
2018-05-16T01:47:00.400Z,87.36
2018-05-16T01:49:28.714Z,87.86
2018-05-16T01:51:56.951Z,88.70
2018-05-16T01:54:25.293Z,88.51
2018-05-16T01:56:53.585Z,88.27
2018-05-16T01:59:21.922Z,89.02
2018-05-16T02:01:50.209Z,88.44
2018-05-16T02:04:18.508Z,88.41
2018-05-16T02:06:46.823Z,88.55
2018-05-16T02:09:15.941Z,87.68
2018-05-16T02:11:44.313Z,87.76
2018-05-16T02:14:13.334Z,85.55
2018-05-16T02:16:41.715Z,86.75
2018-05-16T02:19:10.029Z,87.12
2018-05-16T02:21:38.357Z,87.30
2018-05-16T02:24:06.657Z,87.80
2018-05-16T02:26:34.985Z,85.72
2018-05-16T02:29:04.025Z,86.39
2018-05-16T02:31:32.347Z,87.36
2018-05-16T02:34:00.629Z,88.54
2018-05-16T02:36:29.701Z,89.46
2018-05-16T02:38:57.992Z,89.67
2018-05-16T02:41:26.334Z,89.92
2018-05-16T02:43:54.646Z,89.83
2018-05-16T02:46:22.937Z,89.88
2018-05-16T02:48:52.003Z,90.31
2018-05-16T02:51:20.307Z,90.59
2018-05-16T02:53:49.405Z,91.09
2018-05-16T02:56:18.449Z,89.52
2018-05-16T02:58:46.743Z,88.06
2018-05-16T03:01:15.065Z,88.37
2018-05-16T03:03:44.192Z,88.35
2018-05-16T03:06:12.508Z,88.97
2018-05-16T03:08:40.829Z,89.99
2018-05-16T03:11:09.380Z,88.97
2018-05-16T03:13:37.680Z,88.91
2018-05-16T03:16:06.729Z,89.26
2018-05-16T03:18:35.036Z,89.78
2018-05-16T03:21:03.333Z,89.39
2018-05-16T03:23:32.397Z,90.55
2018-05-16T03:26:00.692Z,90.93
2018-05-16T03:28:29.800Z,90.93
2018-05-16T03:30:58.896Z,90.50
2018-05-16T03:33:27.954Z,88.93
2018-05-16T03:35:56.292Z,89.58
2018-05-16T03:38:24.592Z,89.18
2018-05-16T03:40:52.883Z,88.47
2018-05-16T03:43:21.214Z,88.03
2018-05-16T03:45:49.547Z,87.79
2018-05-16T03:48:17.851Z,87.96
2018-05-16T03:50:46.915Z,87.70
2018-05-16T03:53:15.225Z,87.59
2018-05-16T03:55:44.273Z,87.66
2018-05-16T03:58:30.365Z,87.64
2018-05-16T04:01:16.309Z,87.05
2018-05-16T04:04:02.846Z,86.63
2018-05-16T04:06:31.201Z,86.45
2018-05-16T04:09:00.346Z,86.96
2018-05-16T04:11:28.695Z,85.99
2018-05-16T04:13:57.010Z,85.68
2018-05-16T04:16:25.308Z,84.41
2018-05-16T04:18:53.593Z,83.90
2018-05-16T04:21:22.644Z,81.61
2018-05-16T04:23:50.942Z,84.01
2018-05-16T04:26:19.254Z,83.30
2018-05-16T04:28:48.425Z,82.71
2018-05-16T04:31:16.697Z,82.33
2018-05-16T04:33:45.006Z,80.54
2018-05-16T04:36:14.096Z,81.35
2018-05-16T04:38:43.184Z,79.99
2018-05-16T04:41:11.491Z,80.54
2018-05-16T04:43:39.812Z,75.46
2018-05-16T04:46:08.118Z,78.17
2018-05-16T04:48:36.432Z,77.84
2018-05-16T04:51:04.763Z,76.91
2018-05-16T04:53:33.063Z,65.85
2018-05-16T04:56:02.108Z,57.98
2018-05-16T04:58:30.416Z,55.89
2018-05-16T05:00:58.715Z,49.33
2018-05-16T05:03:27.774Z,48.38
2018-05-16T05:05:56.067Z,53.22
2018-05-16T05:08:25.120Z,53.75
2018-05-16T05:10:53.416Z,55.06
2018-05-16T05:13:21.729Z,53.27
2018-05-16T05:15:50.832Z,55.75
2018-05-16T05:18:20.010Z,44.63
2018-05-16T05:20:48.206Z,45.72
2018-05-16T05:23:17.266Z,48.83
2018-05-16T05:25:45.589Z,48.99
2018-05-16T05:28:14.626Z,50.05
2018-05-16T05:30:42.932Z,47.47
2018-05-16T05:33:11.272Z,46.73
2018-05-16T05:35:39.549Z,64.39
2018-05-16T05:38:07.852Z,63.87
2018-05-16T05:40:36.146Z,61.59
2018-05-16T05:43:04.467Z,59.63
2018-05-16T05:45:32.780Z,64.13
2018-05-16T05:48:01.133Z,64.75
2018-05-16T05:50:29.425Z,67.25
2018-05-16T05:52:57.730Z,66.24
2018-05-16T05:55:26.068Z,67.81
2018-05-16T05:57:54.359Z,64.09
2018-05-16T06:00:22.683Z,57.32
2018-05-16T06:02:51.740Z,50.33
2018-05-16T06:05:20.081Z,56.08
2018-05-16T06:07:48.542Z,52.48
2018-05-16T06:10:17.599Z,56.27
2018-05-16T06:12:46.010Z,53.31
2018-05-16T06:15:14.301Z,60.39
2018-05-16T06:17:42.597Z,64.52
2018-05-16T06:20:10.913Z,68.53
2018-05-16T06:22:39.461Z,68.47
2018-05-16T06:25:07.745Z,69.54
2018-05-16T06:27:36.043Z,70.65
2018-05-16T06:30:04.487Z,68.99
2018-05-16T06:32:32.792Z,70.02
2018-05-16T06:35:01.117Z,71.63
2018-05-16T06:37:30.171Z,71.45
2018-05-16T06:39:59.211Z,70.57
2018-05-16T06:42:28.321Z,70.37
2018-05-16T06:44:56.629Z,70.68
2018-05-16T06:47:24.928Z,70.44
2018-05-16T06:49:53.214Z,69.76
2018-05-16T06:52:21.525Z,66.74
2018-05-16T06:54:50.582Z,60.76
2018-05-16T06:57:18.926Z,61.27
2018-05-16T06:59:47.250Z,64.28
2018-05-16T07:02:15.553Z,60.89
2018-05-16T07:04:43.897Z,64.54
2018-05-16T07:07:12.379Z,64.62
2018-05-16T07:09:40.716Z,69.14
2018-05-16T07:12:09.031Z,70.52
2018-05-16T07:14:38.082Z,71.60
2018-05-16T07:17:06.387Z,72.18
2018-05-16T07:19:34.679Z,72.70
2018-05-16T07:22:02.991Z,73.08
2018-05-16T07:24:32.061Z,72.64
2018-05-16T07:27:00.401Z,73.27
2018-05-16T07:29:28.721Z,72.45
2018-05-16T07:31:57.025Z,71.70
2018-05-16T07:34:25.375Z,74.46
2018-05-16T07:36:53.681Z,74.52
2018-05-16T07:39:21.961Z,74.89
2018-05-16T07:41:50.343Z,74.92
2018-05-16T07:44:18.645Z,77.01
2018-05-16T07:46:46.957Z,75.87
2018-05-16T07:49:15.346Z,75.63
2018-05-16T07:51:43.629Z,75.57
2018-05-16T07:54:12.688Z,74.64
2018-05-16T07:56:40.984Z,73.25
2018-05-16T07:59:13.560Z,73.24
2018-05-16T08:01:41.864Z,72.59
2018-05-16T08:04:10.912Z,73.57
2018-05-16T08:06:39.215Z,72.79
2018-05-16T08:09:07.538Z,71.59
2018-05-16T08:11:35.825Z,71.12
2018-05-16T08:14:04.146Z,69.47
2018-05-16T08:16:32.440Z,68.86
2018-05-16T08:19:01.509Z,66.16
2018-05-16T08:21:29.812Z,66.87
2018-05-16T08:23:58.896Z,66.28
2018-05-16T08:26:27.237Z,66.89
2018-05-16T08:28:55.558Z,66.72
2018-05-16T08:31:23.886Z,65.14
2018-05-16T08:33:52.210Z,65.50
2018-05-16T08:36:20.553Z,66.52
2018-05-16T08:38:48.855Z,66.64
2018-05-16T08:41:17.135Z,66.24
2018-05-16T08:43:45.507Z,64.33
2018-05-16T08:46:15.402Z,63.63
2018-05-16T08:48:43.705Z,64.34
2018-05-16T08:51:12.016Z,64.43
2018-05-16T08:53:40.359Z,65.42
2018-05-16T08:56:08.697Z,64.22
2018-05-16T08:58:37.010Z,66.54
2018-05-16T09:01:05.373Z,63.17
2018-05-16T09:03:33.622Z,65.04
2018-05-16T09:06:01.927Z,64.64
2018-05-16T09:11:04.750Z,63.96
2018-05-16T09:13:33.083Z,64.51
2018-05-16T09:16:01.389Z,65.09
2018-05-16T09:18:29.706Z,65.48
2018-05-16T09:20:58.785Z,66.11
2018-05-16T09:23:27.066Z,65.46
2018-05-16T09:25:55.373Z,64.81
2018-05-16T09:28:24.420Z,64.62
2018-05-16T09:30:52.762Z,63.48
2018-05-16T09:33:21.217Z,63.54
2018-05-16T09:35:50.249Z,63.47
2018-05-16T09:38:18.604Z,62.90
2018-05-16T09:40:47.009Z,63.75
2018-05-16T09:43:15.317Z,61.71
2018-05-16T09:45:43.674Z,61.74
2018-05-16T09:48:12.676Z,60.87
2018-05-16T09:50:41.034Z,60.59
2018-05-16T09:53:09.349Z,60.42
2018-05-16T09:55:37.670Z,60.03
2018-05-16T09:58:07.104Z,60.39
2018-05-16T10:00:35.396Z,60.88
2018-05-16T10:03:03.717Z,59.13
2018-05-16T10:05:32.765Z,60.31
2018-05-16T10:08:01.052Z,59.69
2018-05-16T10:10:29.436Z,61.20
2018-05-16T10:12:57.808Z,61.58
2018-05-16T10:15:26.078Z,61.35
2018-05-16T10:17:54.471Z,62.31
2018-05-16T10:20:22.772Z,64.70
2018-05-16T10:22:51.949Z,65.28
2018-05-16T10:25:20.324Z,67.33
2018-05-16T10:27:49.415Z,66.25
2018-05-16T10:30:17.712Z,68.05
2018-05-16T10:32:46.044Z,66.94
2018-05-16T10:35:14.348Z,66.74
2018-05-16T10:37:42.675Z,69.26
2018-05-16T10:40:10.989Z,67.73
2018-05-16T10:42:39.309Z,66.71
2018-05-16T10:45:07.804Z,65.42
2018-05-16T10:47:36.166Z,65.29
2018-05-16T10:50:05.242Z,67.76
2018-05-16T10:52:33.569Z,70.41
2018-05-16T10:55:01.890Z,68.96
2018-05-16T10:57:30.364Z,67.32
2018-05-16T10:59:58.652Z,69.11
2018-05-16T11:02:26.955Z,71.08
2018-05-16T11:04:55.250Z,71.36
2018-05-16T11:07:24.402Z,72.49
2018-05-16T11:09:52.719Z,74.22
2018-05-16T11:12:21.796Z,75.71
2018-05-16T11:14:50.151Z,76.43
2018-05-16T11:17:18.464Z,75.85
2018-05-16T11:19:47.576Z,75.65
2018-05-16T11:22:15.916Z,75.61
2018-05-16T11:24:44.204Z,77.00
2018-05-16T11:27:12.653Z,74.87
2018-05-16T11:29:40.965Z,74.55
2018-05-16T11:32:09.301Z,76.44
2018-05-16T11:34:37.607Z,75.18
2018-05-16T11:37:05.934Z,75.06
2018-05-16T11:39:34.472Z,73.88
2018-05-16T11:42:02.897Z,76.84
2018-05-16T11:44:31.217Z,73.60
2018-05-16T11:46:59.525Z,70.32
2018-05-16T11:49:27.853Z,72.64
2018-05-16T11:51:56.151Z,73.26
2018-05-16T11:54:24.548Z,72.02
2018-05-16T11:56:52.835Z,72.30
2018-05-16T11:59:21.255Z,69.96
2018-05-16T12:01:49.566Z,71.52
2018-05-16T12:04:18.012Z,68.06
2018-05-16T12:06:46.324Z,66.56
2018-05-16T12:09:14.730Z,67.48
2018-05-16T12:11:43.273Z,69.81
2018-05-16T12:14:11.553Z,71.92
2018-05-16T12:16:39.892Z,72.24
2018-05-16T12:19:08.955Z,71.06
2018-05-16T12:21:37.279Z,71.12
2018-05-16T12:24:05.605Z,70.11
2018-05-16T12:26:34.162Z,69.23
2018-05-16T12:29:02.521Z,68.05
2018-05-16T12:31:30.764Z,68.29
2018-05-16T12:33:59.880Z,69.27
2018-05-16T12:36:28.311Z,70.46
2018-05-16T12:38:56.551Z,71.97
2018-05-16T12:41:24.842Z,70.09
2018-05-16T12:43:53.159Z,71.55
2018-05-16T12:46:21.441Z,70.67
2018-05-16T12:48:49.755Z,70.24
2018-05-16T12:51:18.087Z,71.59
2018-05-16T12:53:46.725Z,72.27
2018-05-16T12:56:15.121Z,73.69
2018-05-16T12:58:43.503Z,73.63
2018-05-16T13:01:12.045Z,72.91
2018-05-16T13:03:40.641Z,73.30
2018-05-16T13:06:09.185Z,72.59
2018-05-16T13:08:37.557Z,71.99
2018-05-16T13:11:06.622Z,71.93
2018-05-16T13:13:34.958Z,69.72
2018-05-16T13:16:04.022Z,67.53
2018-05-16T13:18:32.350Z,69.72
2018-05-16T13:21:00.680Z,68.56
2018-05-16T13:23:29.790Z,70.05
2018-05-16T13:25:58.113Z,68.80
2018-05-16T13:28:27.350Z,65.27
2018-05-16T13:30:55.753Z,67.54
2018-05-16T13:33:24.408Z,66.78
2018-05-16T13:35:52.860Z,67.14
2018-05-16T13:38:21.167Z,66.21
2018-05-16T13:40:49.498Z,65.97
2018-05-16T13:43:18.582Z,62.95
2018-05-16T13:45:47.661Z,62.27
2018-05-16T13:48:15.953Z,63.29
2018-05-16T13:50:45.085Z,63.99
2018-05-16T13:53:13.522Z,63.64
2018-05-16T13:55:42.636Z,64.47
2018-05-16T13:58:11.732Z,62.89
2018-05-16T14:00:40.899Z,64.43
2018-05-16T14:03:09.342Z,62.29
2018-05-16T14:05:37.620Z,63.18
2018-05-16T14:08:05.969Z,65.07
2018-05-16T14:10:34.288Z,64.82
2018-05-16T14:13:02.609Z,65.50
2018-05-16T14:15:31.705Z,64.16
2018-05-16T14:18:00.785Z,61.30
2018-05-16T14:20:29.283Z,60.65
2018-05-16T14:22:58.416Z,62.39
2018-05-16T14:25:26.871Z,60.30
2018-05-16T14:27:55.984Z,61.77
2018-05-16T14:30:24.304Z,60.34
2018-05-16T14:32:52.638Z,60.69
2018-05-16T14:35:21.067Z,62.52
2018-05-16T14:37:49.364Z,64.69
2018-05-16T14:40:17.682Z,65.98
2018-05-16T14:42:46.081Z,66.69
2018-05-16T14:45:14.439Z,65.87
2018-05-16T14:47:42.780Z,66.35
2018-05-16T14:50:11.866Z,66.54
2018-05-16T14:52:40.160Z,66.25
2018-05-16T14:55:09.243Z,67.20
2018-05-16T14:57:37.572Z,68.46
2018-05-16T15:00:05.910Z,68.87
2018-05-16T15:02:34.992Z,68.61
2018-05-16T15:05:03.389Z,67.79
2018-05-16T15:07:33.035Z,68.41
2018-05-16T15:10:01.296Z,68.79
2018-05-16T15:12:29.739Z,68.98
2018-05-16T15:14:58.093Z,69.19
2018-05-16T15:17:26.390Z,69.45
2018-05-16T15:19:54.732Z,69.41
2018-05-16T15:22:23.048Z,69.06
2018-05-16T15:24:51.362Z,70.19
2018-05-16T15:27:19.711Z,70.79
2018-05-16T15:29:47.998Z,71.29
2018-05-16T15:32:17.122Z,72.16
2018-05-16T15:34:45.449Z,71.12
2018-05-16T15:37:13.764Z,73.20
2018-05-16T15:39:42.804Z,72.45
2018-05-16T15:42:11.233Z,73.69
2018-05-16T15:44:40.296Z,73.82
2018-05-16T15:47:08.683Z,74.41
2018-05-16T15:49:37.004Z,74.64
2018-05-16T15:52:05.313Z,75.24
2018-05-16T15:54:34.096Z,76.56
2018-05-16T15:57:02.376Z,74.60
2018-05-16T15:59:33.662Z,69.01
2018-05-16T16:02:02.775Z,70.32
2018-05-16T16:04:31.365Z,72.68
2018-05-16T16:06:59.722Z,74.07
2018-05-16T16:09:28.049Z,71.75
2018-05-16T16:11:56.360Z,77.30
2018-05-16T16:14:24.716Z,76.77
2018-05-16T16:16:53.030Z,75.18
2018-05-16T16:19:21.362Z,76.56
2018-05-16T16:21:49.658Z,79.14
2018-05-16T16:24:18.030Z,76.81
2018-05-16T16:26:46.386Z,77.47
2018-05-16T16:29:14.724Z,76.73
2018-05-16T16:31:43.239Z,76.82
2018-05-16T16:34:11.554Z,77.04
2018-05-16T16:36:39.881Z,76.94
2018-05-16T16:39:08.979Z,77.10
2018-05-16T16:41:38.461Z,77.67
2018-05-16T16:44:06.776Z,77.21
2018-05-16T16:46:35.122Z,76.25
2018-05-16T16:49:03.456Z,76.08
2018-05-16T16:51:31.747Z,75.33
2018-05-16T16:54:00.060Z,74.93
2018-05-16T16:56:28.376Z,74.66
2018-05-16T16:58:56.689Z,74.66
2018-05-16T17:01:24.999Z,74.24
2018-05-16T17:03:54.062Z,74.87
2018-05-16T17:06:22.451Z,75.16
2018-05-16T17:08:50.751Z,76.06
2018-05-16T17:11:19.977Z,75.36
2018-05-16T17:13:48.309Z,76.08
2018-05-16T17:16:16.672Z,77.95
2018-05-16T17:18:45.007Z,76.91
2018-05-16T17:21:13.309Z,77.70
2018-05-16T17:23:41.841Z,78.94
2018-05-16T17:26:10.985Z,79.85
2018-05-16T17:28:39.291Z,80.60
2018-05-16T17:31:07.628Z,78.13
2018-05-16T17:33:35.912Z,79.08
2018-05-16T17:36:04.321Z,79.08
2018-05-16T17:38:32.599Z,78.61
2018-05-16T17:41:01.729Z,81.28
2018-05-16T17:43:30.851Z,83.05
2018-05-16T17:45:59.169Z,84.29
2018-05-16T17:48:27.500Z,85.01
2018-05-16T17:50:55.830Z,84.05
2018-05-16T17:53:24.168Z,85.36
2018-05-16T17:55:52.490Z,84.99
2018-05-16T17:58:20.815Z,86.70
2018-05-16T18:00:49.152Z,83.60
2018-05-16T18:03:17.461Z,84.52
2018-05-16T18:05:46.666Z,83.71
2018-05-16T18:08:14.976Z,84.81
2018-05-16T18:10:43.338Z,86.38
2018-05-16T18:16:56.682Z,86.90
2018-05-16T18:19:24.981Z,86.13
2018-05-16T18:21:53.329Z,85.98
2018-05-16T18:24:21.647Z,84.22
2018-05-16T18:26:49.956Z,85.32
2018-05-16T18:29:18.405Z,82.82
2018-05-16T18:31:46.723Z,83.18
2018-05-16T18:34:15.064Z,80.17
2018-05-16T18:36:43.467Z,79.32
2018-05-16T18:39:11.844Z,78.92
2018-05-16T18:41:40.138Z,80.83
2018-05-16T18:44:09.289Z,81.51
2018-05-16T18:46:37.588Z,82.47
2018-05-16T18:49:05.971Z,84.47
2018-05-16T18:51:34.389Z,87.80
2018-05-16T18:54:03.508Z,86.93
2018-05-16T18:56:31.897Z,87.16
2018-05-16T18:59:04.673Z,86.79
2018-05-16T19:01:33.095Z,86.17
2018-05-16T19:04:02.163Z,84.88
2018-05-16T19:06:30.499Z,83.66
2018-05-16T19:08:58.829Z,82.89
2018-05-16T19:11:27.177Z,83.87
2018-05-16T19:13:55.517Z,83.83
2018-05-16T19:16:23.859Z,82.10
2018-05-16T19:18:52.238Z,81.17
2018-05-16T19:21:20.537Z,79.88
2018-05-16T19:23:48.895Z,80.84
2018-05-16T19:26:17.230Z,82.26
2018-05-16T19:28:45.605Z,81.88
2018-05-16T19:31:13.925Z,81.48
2018-05-16T19:33:42.263Z,82.47
2018-05-16T19:36:11.363Z,82.32
2018-05-16T19:38:40.542Z,80.59
2018-05-16T19:41:09.671Z,79.71
2018-05-16T19:43:38.017Z,79.15
2018-05-16T19:46:07.333Z,78.99
2018-05-16T19:48:35.608Z,78.74
2018-05-16T19:51:05.090Z,78.89
2018-05-16T19:53:33.412Z,78.25
2018-05-16T19:56:01.792Z,78.80
2018-05-16T19:58:30.180Z,77.50
2018-05-16T20:00:58.515Z,77.86
2018-05-16T20:03:26.896Z,77.76
2018-05-16T20:05:55.281Z,78.28
2018-05-16T20:08:23.621Z,77.99
2018-05-16T20:10:51.953Z,78.08
2018-05-16T20:13:20.282Z,78.50
2018-05-16T20:15:48.635Z,78.28
2018-05-16T20:18:16.969Z,78.47
2018-05-16T20:20:46.061Z,78.52
2018-05-16T20:23:14.429Z,78.96
2018-05-16T20:25:42.789Z,78.89
2018-05-16T20:28:11.100Z,79.39
2018-05-16T20:30:40.345Z,79.25
2018-05-16T20:33:08.684Z,79.70
2018-05-16T20:35:37.773Z,79.67
2018-05-16T20:38:06.889Z,79.36
2018-05-16T20:40:35.317Z,78.88
2018-05-16T20:43:03.640Z,79.66
2018-05-16T20:45:32.007Z,79.80
2018-05-16T20:48:01.167Z,79.91
2018-05-16T20:50:29.494Z,80.19
2018-05-16T20:52:58.562Z,80.11
2018-05-16T20:55:26.993Z,80.56
2018-05-16T20:57:55.337Z,80.72
2018-05-16T21:00:24.513Z,80.25
2018-05-16T21:02:52.909Z,80.11
2018-05-16T21:05:22.124Z,80.33
2018-05-16T21:07:50.527Z,79.92
2018-05-16T21:10:18.865Z,79.94
2018-05-16T21:12:48.063Z,80.17
2018-05-16T21:15:17.127Z,80.61
2018-05-16T21:17:45.526Z,80.77
2018-05-16T21:20:14.593Z,80.86
2018-05-16T21:22:42.947Z,80.80
2018-05-16T21:25:11.242Z,80.75
2018-05-16T21:27:39.556Z,81.02
2018-05-16T21:30:07.905Z,80.67
2018-05-16T21:32:36.311Z,80.60
2018-05-16T21:35:04.666Z,80.02
2018-05-16T21:37:32.978Z,79.83
2018-05-16T21:40:01.332Z,79.95
2018-05-16T21:42:29.627Z,79.95
2018-05-16T21:44:57.947Z,80.57
2018-05-16T21:47:26.220Z,80.48
2018-05-16T21:49:54.550Z,80.93
2018-05-16T21:52:22.876Z,81.47
2018-05-16T21:54:51.253Z,81.37
2018-05-16T21:57:19.607Z,81.30
2018-05-16T21:59:48.694Z,81.59
2018-05-16T22:02:16.973Z,81.62
2018-05-16T22:04:46.080Z,81.29
2018-05-16T22:07:15.157Z,80.76
2018-05-16T22:09:43.481Z,80.65
2018-05-16T22:12:11.779Z,81.26
2018-05-16T22:14:40.117Z,81.37
2018-05-16T22:17:09.153Z,81.75
2018-05-16T22:19:37.507Z,81.90
2018-05-16T22:22:05.863Z,81.83
2018-05-16T22:24:35.027Z,81.95
2018-05-16T22:27:03.649Z,81.83
2018-05-16T22:29:32.717Z,82.09
2018-05-16T22:32:06.528Z,81.37
2018-05-16T22:34:40.404Z,81.51
2018-05-16T22:37:14.003Z,81.21
2018-05-16T22:39:47.840Z,81.11
2018-05-16T22:42:21.924Z,81.12
2018-05-16T22:44:55.653Z,81.34
2018-05-16T22:47:23.960Z,81.39
2018-05-16T22:49:53.029Z,81.79
2018-05-16T22:52:21.374Z,81.34
2018-05-16T22:54:49.631Z,81.74
2018-05-16T22:57:17.997Z,81.37
2018-05-16T22:59:47.075Z,81.46
2018-05-16T23:02:15.410Z,82.04
2018-05-16T23:04:43.692Z,81.99
2018-05-16T23:07:11.987Z,81.23
2018-05-16T23:09:40.322Z,81.34
2018-05-16T23:12:09.045Z,81.55
2018-05-16T23:14:37.359Z,81.55
2018-05-16T23:17:06.655Z,81.55
2018-05-16T23:19:35.149Z,81.60
2018-05-16T23:22:04.203Z,81.81
2018-05-16T23:24:32.632Z,81.86
2018-05-16T23:27:01.721Z,81.39
2018-05-16T23:29:30.784Z,81.79
2018-05-16T23:31:59.089Z,81.73
2018-05-16T23:34:28.142Z,81.89
2018-05-16T23:36:56.418Z,82.81
2018-05-16T23:39:24.762Z,82.77
2018-05-16T23:41:53.116Z,83.01
2018-05-16T23:44:22.206Z,83.19
2018-05-16T23:46:51.281Z,83.08
2018-05-16T23:49:19.569Z,82.74
2018-05-16T23:51:47.882Z,82.57
2018-05-16T23:54:16.191Z,82.62
2018-05-16T23:56:44.524Z,82.97
2018-05-16T23:59:13.554Z,83.07
